Time;durP1;ratioP1;P1;durP2;ratioP2;P2;SDS_P1;SDS_P2;PMS_P1;PMS_P2;Temp;Humidity;BMP_temperature;BMP_pressure;BME280_temperature;BME280_humidity;BME280_pressure;Samples;Min_cycle;Max_cycle;Signal;HPM_P1;HPM_P2
2021/04/23 00:01:42;;;;;;;8.93;3.67;;;;;;;5.07;66.96;102681.19;5016088;28;20034;-24
2021/04/23 00:04:07;;;;;;;10.82;3.80;;;;;;;4.96;67.15;102688.78;5016035;28;20029;-25
2021/04/23 00:06:38;;;;;;;12.18;4.32;;;;;;;4.93;66.79;102680.81;5017160;28;20728;-25
2021/04/23 00:09:17;;;;;;;11.35;4.20;;;;;;;4.88;67.16;102687.69;5011168;28;20029;-24
2021/04/23 00:11:47;;;;;;;11.20;4.22;;;;;;;4.78;67.07;102689.16;5003407;28;20060;-25
2021/04/23 00:14:13;;;;;;;14.13;4.50;;;;;;;4.84;67.43;102694.63;5005360;28;20220;-23
2021/04/23 00:16:39;;;;;;;14.13;5.15;;;;;;;4.89;67.06;102690.38;4998408;28;20033;-25
2021/04/23 00:19:05;;;;;;;12.90;4.55;;;;;;;4.82;66.99;102685.75;5010421;28;20061;-26
2021/04/23 00:21:31;;;;;;;13.93;4.38;;;;;;;4.80;67.29;102684.81;5001937;28;20135;-25
2021/04/23 00:23:58;;;;;;;11.02;4.00;;;;;;;4.76;67.05;102686.47;5014796;28;20125;-25
2021/04/23 00:26:23;;;;;;;11.70;5.00;;;;;;;4.71;67.38;102685.44;4994822;28;20135;-25
2021/04/23 00:28:48;;;;;;;12.27;4.28;;;;;;;4.58;67.30;102680.63;5005359;28;20120;-26
2021/04/23 00:31:14;;;;;;;12.38;4.75;;;;;;;4.59;67.34;102687.72;4992460;28;20080;-24
2021/04/23 00:33:39;;;;;;;12.02;4.75;;;;;;;4.52;67.58;102682.22;5013591;28;20022;-26
2021/04/23 00:36:05;;;;;;;12.18;3.90;;;;;;;4.50;67.39;102683.91;5005195;28;20197;-26
2021/04/23 00:38:30;;;;;;;13.88;4.65;;;;;;;4.50;67.62;102680.38;5011426;28;20029;-25
2021/04/23 00:41:04;;;;;;;12.40;4.50;;;;;;;4.44;67.92;102680.19;5003597;28;20028;-24
2021/04/23 00:43:30;;;;;;;;;;;;;;;4.37;68.01;102693.19;5004583;28;20034;-27
2021/04/23 00:45:55;;;;;;;12.02;4.78;;;;;;;4.37;68.02;102680.00;5002373;28;20028;-24
2021/04/23 00:48:21;;;;;;;11.45;4.55;;;;;;;4.33;68.12;102701.81;5009644;28;20030;-27
2021/04/23 00:50:51;;;;;;;14.50;5.43;;;;;;;4.33;67.91;102688.63;5012718;28;20132;-24
2021/04/23 00:53:25;;;;;;;14.48;5.07;;;;;;;4.27;68.25;102688.47;5001922;28;20077;-26
2021/04/23 00:55:51;;;;;;;13.40;5.13;;;;;;;4.25;68.02;102698.06;5000797;28;20497;-23
2021/04/23 00:58:18;;;;;;;12.65;4.70;;;;;;;4.25;68.14;102698.97;5003516;28;20427;-24
2021/04/23 01:00:46;;;;;;;12.52;5.30;;;;;;;4.29;68.06;102699.94;4994187;28;20140;-25
2021/04/23 01:03:12;;;;;;;10.15;4.60;;;;;;;4.21;68.34;102704.97;5002871;28;20029;-24
2021/04/23 01:05:37;;;;;;;10.55;4.50;;;;;;;4.21;68.18;102702.34;5004854;28;20064;-24
2021/04/23 01:08:02;;;;;;;14.52;5.63;;;;;;;4.15;68.25;102696.84;4998488;28;20030;-24
2021/04/23 01:10:28;;;;;;;14.35;5.25;;;;;;;4.02;68.57;102691.19;4992977;28;20032;-25
2021/04/23 01:12:53;;;;;;;11.73;5.13;;;;;;;4.01;68.83;102699.94;4990810;28;20125;-26
2021/04/23 01:15:19;;;;;;;11.15;4.53;;;;;;;4.00;68.60;102692.88;5009516;28;20022;-23
2021/04/23 01:17:44;;;;;;;11.18;5.07;;;;;;;4.03;68.87;102698.25;5010923;28;20055;-24
2021/04/23 01:20:10;;;;;;;12.75;5.25;;;;;;;3.94;68.74;102696.19;5010465;28;20036;-23
2021/04/23 01:22:35;;;;;;;10.25;4.75;;;;;;;3.95;68.98;102699.72;5001401;28;20052;-24
2021/04/23 01:25:01;;;;;;;14.02;4.97;;;;;;;3.89;68.77;102695.13;5008334;28;20022;-25
2021/04/23 01:27:26;;;;;;;16.92;5.50;;;;;;;3.96;68.65;102701.53;4988030;28;20033;-26
2021/04/23 01:29:51;;;;;;;14.93;5.22;;;;;;;3.88;68.98;102697.72;5013913;28;20382;-24
2021/04/23 01:32:17;;;;;;;13.07;5.43;;;;;;;3.86;68.86;102702.94;4998834;28;20025;-24
2021/04/23 01:34:42;;;;;;;13.63;5.38;;;;;;;3.76;68.90;102699.09;5011436;28;20399;-26
2021/04/23 01:37:08;;;;;;;10.95;4.50;;;;;;;3.67;68.88;102704.94;5001273;28;20130;-24
2021/04/23 01:39:35;;;;;;;14.77;4.75;;;;;;;3.74;69.21;102695.50;5007097;28;20045;-27
2021/04/23 01:42:00;;;;;;;13.02;5.47;;;;;;;3.68;68.37;102692.66;5000509;28;20519;-25
2021/04/23 01:44:26;;;;;;;13.48;5.03;;;;;;;3.74;68.80;102700.75;4999476;28;20117;-26
2021/04/23 01:46:52;;;;;;;12.93;4.82;;;;;;;3.67;68.95;102698.75;5002025;28;20837;-23
2021/04/23 01:49:18;;;;;;;13.20;4.80;;;;;;;3.66;68.93;102699.63;5002291;28;20109;-24
2021/04/23 01:51:46;;;;;;;10.57;5.18;;;;;;;3.63;69.00;102699.53;5000985;28;20341;-25
2021/04/23 01:54:12;;;;;;;13.63;5.05;;;;;;;3.61;68.89;102698.56;5003413;28;20113;-25
2021/04/23 01:56:38;;;;;;;12.00;5.10;;;;;;;3.59;69.07;102706.41;5001745;28;20475;-24
2021/04/23 01:59:04;;;;;;;10.32;5.03;;;;;;;3.68;68.91;102697.94;5012883;28;20091;-25
2021/04/23 02:01:29;;;;;;;12.65;4.90;;;;;;;3.62;69.09;102698.63;5006006;28;20471;-26
2021/04/23 02:03:54;;;;;;;12.15;5.05;;;;;;;3.53;68.95;102699.19;5003712;28;20097;-26
2021/04/23 02:06:20;;;;;;;15.73;5.57;;;;;;;3.52;69.14;102700.00;5004355;28;20032;-25
2021/04/23 02:08:45;;;;;;;16.08;6.68;;;;;;;3.51;69.14;102706.13;4998898;28;20045;-25
2021/04/23 02:11:15;;;;;;;13.57;5.40;;;;;;;3.49;69.34;102705.19;5003324;28;20135;-24
2021/04/23 02:13:41;;;;;;;11.45;5.10;;;;;;;3.47;69.04;102701.59;5002720;28;20026;-23
2021/04/23 02:16:07;;;;;;;11.82;5.47;;;;;;;3.38;69.43;102707.41;5006817;28;20115;-23
2021/04/23 02:18:33;;;;;;;14.30;5.50;;;;;;;3.33;69.29;102707.28;4999619;28;20126;-23
2021/04/23 02:20:58;;;;;;;14.18;5.72;;;;;;;3.40;69.11;102703.13;5001248;28;20057;-23
2021/04/23 02:23:24;;;;;;;12.85;5.47;;;;;;;3.32;69.42;102701.91;5003645;28;20032;-24
2021/04/23 02:25:50;;;;;;;14.65;5.80;;;;;;;3.32;69.73;102700.19;5009229;28;20036;-27
2021/04/23 02:28:16;;;;;;;14.77;5.97;;;;;;;3.32;69.59;102709.81;5002053;28;20026;-24
2021/04/23 02:30:45;;;;;;;12.75;5.97;;;;;;;3.28;69.59;102713.19;5003354;28;20029;-24
2021/04/23 02:33:15;;;;;;;13.88;5.40;;;;;;;3.28;69.67;102714.06;5003085;28;20018;-24
2021/04/23 02:35:40;;;;;;;10.88;5.55;;;;;;;3.28;69.82;102714.06;5006914;28;20476;-24
2021/04/23 02:38:06;;;;;;;16.05;5.80;;;;;;;3.20;69.56;102711.19;5007217;28;20103;-24
2021/04/23 02:40:32;;;;;;;13.90;5.70;;;;;;;3.18;69.79;102715.47;5002970;28;20112;-25
2021/04/23 02:42:58;;;;;;;16.00;6.05;;;;;;;3.22;69.99;102712.09;4989640;28;20116;-25
2021/04/23 02:45:28;;;;;;;15.90;6.55;;;;;;;3.11;69.50;102710.84;5002749;28;20116;-26
2021/04/23 02:47:53;;;;;;;13.63;5.63;;;;;;;3.14;69.71;102718.81;5010808;28;20107;-23
2021/04/23 02:50:21;;;;;;;12.60;5.63;;;;;;;3.16;69.63;102714.53;5008428;28;20472;-25
2021/04/23 02:52:46;;;;;;;13.88;5.60;;;;;;;3.08;69.87;102718.59;5004585;28;20199;-25
2021/04/23 02:55:13;;;;;;;13.07;5.82;;;;;;;3.00;69.95;102720.94;5002114;28;20101;-24
2021/04/23 02:57:38;;;;;;;16.90;6.50;;;;;;;3.08;70.12;102729.09;5002727;28;20408;-25
2021/04/23 03:00:07;;;;;;;13.50;6.03;;;;;;;3.06;69.98;102728.19;5007284;28;20078;-24
2021/04/23 03:02:33;;;;;;;14.00;5.70;;;;;;;2.97;69.91;102731.31;5001299;28;20181;-23
2021/04/23 03:04:58;;;;;;;17.75;6.80;;;;;;;2.96;69.87;102732.19;5002736;28;20070;-26
2021/04/23 03:07:23;;;;;;;15.13;6.10;;;;;;;2.93;70.12;102727.69;5004565;28;20050;-25
2021/04/23 03:09:49;;;;;;;13.25;5.88;;;;;;;2.96;70.05;102727.81;4994603;28;20144;-23
2021/04/23 03:12:14;;;;;;;18.13;6.50;;;;;;;2.95;70.07;102725.09;5007545;28;20033;-28
2021/04/23 03:14:39;;;;;;;13.10;5.90;;;;;;;3.00;70.09;102725.31;5004385;28;20130;-23
2021/04/23 03:17:05;;;;;;;19.20;6.35;;;;;;;2.96;70.29;102737.44;5000980;28;20742;-26
2021/04/23 03:19:30;;;;;;;13.75;6.00;;;;;;;2.91;70.07;102734.63;4996124;28;20045;-24
2021/04/23 03:21:56;;;;;;;13.63;6.47;;;;;;;2.91;70.21;102737.25;5000835;28;20048;-24
2021/04/23 03:24:21;;;;;;;13.38;5.78;;;;;;;2.83;70.22;102739.59;5004080;28;20030;-25
2021/04/23 03:26:46;;;;;;;14.60;6.18;;;;;;;2.86;70.27;102737.06;4999832;28;20029;-25
2021/04/23 03:29:13;;;;;;;15.73;6.82;;;;;;;2.88;70.38;102731.88;5012188;28;20115;-23
2021/04/23 03:31:38;;;;;;;13.48;5.90;;;;;;;2.94;70.16;102741.72;4988330;28;20074;-26
2021/04/23 03:34:04;;;;;;;14.57;6.22;;;;;;;3.01;70.26;102740.22;5002698;28;20073;-25
2021/04/23 03:36:29;;;;;;;14.48;6.35;;;;;;;2.98;70.37;102739.31;5004070;28;20477;-24
2021/04/23 03:38:55;;;;;;;14.15;6.18;;;;;;;2.93;70.33;102729.44;4999579;28;20052;-25
2021/04/23 03:41:31;;;;;;;14.07;5.63;;;;;;;2.98;70.20;102741.03;5005193;28;20128;-24
2021/04/23 03:43:57;;;;;;;14.57;6.03;;;;;;;2.89;70.30;102735.41;5000245;28;20036;-28
2021/04/23 03:46:22;;;;;;;14.50;5.63;;;;;;;2.86;70.26;102738.81;5006165;28;20026;-24
2021/04/23 03:48:48;;;;;;;12.88;5.55;;;;;;;2.89;70.31;102741.56;5000813;28;20458;-26
2021/04/23 03:51:13;;;;;;;12.50;5.82;;;;;;;2.90;70.33;102745.06;5002945;28;20026;-24
2021/04/23 03:53:39;;;;;;;16.77;6.55;;;;;;;2.93;70.38;102745.22;5006427;28;20058;-24
2021/04/23 03:56:05;;;;;;;15.43;5.47;;;;;;;2.81;70.30;102748.25;5004972;28;20113;-23
2021/04/23 03:58:31;;;;;;;14.55;6.03;;;;;;;2.93;70.50;102750.47;5007331;28;20037;-25
2021/04/23 04:01:03;;;;;;;15.70;6.10;;;;;;;2.88;70.42;102747.66;5012956;28;20036;-23
2021/04/23 04:03:28;;;;;;;14.23;5.90;;;;;;;2.82;70.30;102758.81;4997926;28;20774;-25
2021/04/23 04:05:53;;;;;;;12.32;6.10;;;;;;;2.67;70.20;102755.59;5005092;28;20040;-26
2021/04/23 04:08:19;;;;;;;13.38;6.45;;;;;;;2.63;70.09;102758.06;5001550;28;20191;-25
2021/04/23 04:10:44;;;;;;;15.90;6.47;;;;;;;2.60;70.37;102763.22;5005670;28;20494;-24
2021/04/23 04:13:10;;;;;;;16.13;6.13;;;;;;;2.60;70.15;102768.47;5004000;28;20123;-25
2021/04/23 04:15:35;;;;;;;15.02;6.32;;;;;;;2.54;70.33;102765.63;5005266;28;20032;-24
2021/04/23 04:18:00;;;;;;;17.80;6.80;;;;;;;2.61;70.40;102761.50;4993674;28;20139;-25
2021/04/23 04:20:27;;;;;;;14.00;6.25;;;;;;;2.54;70.71;102775.22;5009753;28;20475;-26
2021/04/23 04:22:53;;;;;;;16.02;6.20;;;;;;;2.53;70.40;102768.16;5014493;28;20056;-23
2021/04/23 04:25:27;;;;;;;17.35;6.45;;;;;;;2.52;70.57;102775.16;5002357;28;20446;-26
2021/04/23 04:27:53;;;;;;;14.93;7.50;;;;;;;2.49;70.47;102772.38;4999419;28;20022;-24
2021/04/23 04:30:19;;;;;;;15.68;6.45;;;;;;;2.42;70.73;102781.75;5012159;28;20053;-24
2021/04/23 04:32:44;;;;;;;16.20;6.93;;;;;;;2.38;70.84;102783.38;5000376;28;20446;-23
2021/04/23 04:35:10;;;;;;;14.35;6.53;;;;;;;2.36;70.65;102781.50;4997926;28;20522;-24
2021/04/23 04:37:36;;;;;;;15.55;6.72;;;;;;;2.39;70.93;102784.28;5011602;28;20109;-23
2021/04/23 04:40:01;;;;;;;14.60;6.65;;;;;;;2.39;70.98;102794.78;5016331;28;20025;-26
2021/04/23 04:42:27;;;;;;;15.65;7.07;;;;;;;2.36;70.92;102789.38;5006992;28;20096;-27
2021/04/23 04:44:52;;;;;;;16.40;6.50;;;;;;;2.41;70.81;102793.13;5005066;28;20032;-25
2021/04/23 04:47:18;;;;;;;16.73;7.28;;;;;;;2.42;70.94;102802.78;5011567;28;20052;-24
2021/04/23 04:49:43;;;;;;;15.02;7.20;;;;;;;2.26;70.72;102799.53;5003270;28;20036;-24
2021/04/23 04:52:09;;;;;;;14.18;6.45;;;;;;;2.26;70.81;102804.78;5010087;28;20204;-25
2021/04/23 04:54:34;;;;;;;12.85;6.40;;;;;;;2.32;70.78;102804.09;5003554;28;20574;-27
2021/04/23 04:56:59;;;;;;;13.90;6.50;;;;;;;2.31;70.84;102810.22;5006587;28;20102;-25
2021/04/23 04:59:25;;;;;;;14.73;6.53;;;;;;;2.30;70.74;102807.53;5002331;28;20049;-26
2021/04/23 05:01:50;;;;;;;16.27;7.00;;;;;;;2.34;70.78;102815.59;5008130;28;20034;-24
2021/04/23 05:04:15;;;;;;;14.75;6.80;;;;;;;2.33;70.56;102818.16;5003180;28;20121;-24
2021/04/23 05:06:41;;;;;;;16.60;6.47;;;;;;;2.38;70.49;102827.13;5015105;28;20030;-23
2021/04/23 05:09:06;;;;;;;12.65;6.13;;;;;;;2.45;70.68;102829.16;5003765;28;20095;-25
2021/04/23 05:11:31;;;;;;;17.92;6.38;;;;;;;2.43;70.77;102822.06;5001666;28;20356;-24
2021/04/23 05:13:58;;;;;;;17.42;6.88;;;;;;;2.41;70.42;102829.91;4999339;28;20460;-24
2021/04/23 05:16:23;;;;;;;16.38;6.43;;;;;;;2.43;70.86;102833.50;5012071;28;20445;-24
2021/04/23 05:18:48;;;;;;;17.85;7.43;;;;;;;2.49;70.75;102833.72;4994881;28;20048;-25
2021/04/23 05:21:14;;;;;;;15.60;6.88;;;;;;;2.57;70.65;102839.31;4994016;28;20480;-25
2021/04/23 05:23:39;;;;;;;16.52;7.45;;;;;;;2.46;70.78;102837.97;5007545;28;20073;-26
2021/04/23 05:26:06;;;;;;;14.15;6.93;;;;;;;2.42;70.82;102836.03;5003858;28;20033;-23
2021/04/23 05:28:31;;;;;;;15.73;6.55;;;;;;;2.50;70.74;102830.28;4991430;28;20065;-24
2021/04/23 05:30:56;;;;;;;20.05;6.72;;;;;;;2.52;70.65;102835.59;4997501;28;20143;-24
2021/04/23 05:33:22;;;;;;;15.38;6.68;;;;;;;2.63;70.62;102839.56;4996714;28;20026;-24
2021/04/23 05:35:47;;;;;;;15.73;7.28;;;;;;;2.64;70.88;102837.84;5002540;28;20074;-24
2021/04/23 05:38:12;;;;;;;23.55;13.65;;;;;;;2.63;70.82;102838.69;5000613;28;20472;-23
2021/04/23 05:40:42;;;;;;;20.30;11.23;;;;;;;2.66;70.75;102841.41;5007218;28;20099;-26
2021/04/23 05:43:08;;;;;;;22.75;15.38;;;;;;;2.95;71.22;102839.09;4997569;28;20037;-25
2021/04/23 05:45:33;;;;;;;21.10;11.85;;;;;;;3.11;71.19;102844.97;4994502;28;20025;-25
2021/04/23 05:47:59;;;;;;;24.83;19.08;;;;;;;3.28;71.61;102842.09;4995979;28;20026;-25
2021/04/23 05:50:26;;;;;;;24.83;11.13;;;;;;;3.31;71.47;102848.38;4994751;28;20025;-23
2021/04/23 05:52:51;;;;;;;23.85;12.48;;;;;;;3.24;71.83;102848.06;5005513;28;20095;-25
2021/04/23 05:55:17;;;;;;;25.52;16.33;;;;;;;3.33;72.07;102849.34;4997394;28;20046;-24
2021/04/23 05:57:43;;;;;;;20.75;10.98;;;;;;;3.35;72.31;102854.66;4995947;28;20046;-23
2021/04/23 06:00:10;;;;;;;25.98;14.70;;;;;;;3.65;72.37;102850.50;4997212;28;20111;-25
2021/04/23 06:02:36;;;;;;;19.88;11.30;;;;;;;3.68;72.03;102863.78;4995944;28;20091;-24
2021/04/23 06:05:01;;;;;;;18.85;11.63;;;;;;;3.77;72.09;102863.22;4995248;28;20445;-26
2021/04/23 06:07:28;;;;;;;42.70;37.17;;;;;;;3.85;71.98;102855.63;4996689;28;20048;-23
2021/04/23 06:09:53;;;;;;;32.45;26.35;;;;;;;3.82;71.96;102859.94;4997313;28;20026;-25
2021/04/23 06:12:19;;;;;;;25.00;14.57;;;;;;;3.86;71.72;102860.03;4998461;28;20153;-24
2021/04/23 06:14:44;;;;;;;21.08;10.07;;;;;;;4.01;71.89;102852.72;5000351;28;20098;-28
2021/04/23 06:17:09;;;;;;;24.52;16.30;;;;;;;4.08;71.75;102859.06;5000490;28;20034;-24
2021/04/23 06:19:35;;;;;;;20.38;12.95;;;;;;;4.03;71.77;102855.38;4999674;28;20099;-24
2021/04/23 06:22:00;;;;;;;22.45;12.55;;;;;;;4.08;72.15;102860.81;4992264;28;20109;-23
2021/04/23 06:24:26;;;;;;;19.77;8.77;;;;;;;4.14;71.97;102861.94;4997988;28;20072;-24
2021/04/23 06:26:51;;;;;;;19.95;8.85;;;;;;;4.44;72.13;102862.06;4998701;28;20038;-24
2021/04/23 06:29:17;;;;;;;19.90;8.95;;;;;;;4.34;71.94;102867.00;4990039;28;20034;-26
2021/04/23 06:31:43;;;;;;;19.13;8.45;;;;;;;4.51;72.14;102864.97;4998213;28;20096;-24
2021/04/23 06:34:08;;;;;;;17.10;8.80;;;;;;;4.56;71.80;102869.47;4995895;28;20121;-26
2021/04/23 06:36:33;;;;;;;21.58;7.97;;;;;;;4.84;71.62;102871.31;5006088;28;20030;-25
2021/04/23 06:38:59;;;;;;;20.90;8.60;;;;;;;4.99;71.54;102870.03;5006239;28;20051;-24
2021/04/23 06:41:24;;;;;;;16.95;6.68;;;;;;;5.07;71.07;102868.50;5001837;28;20029;-25
2021/04/23 06:43:49;;;;;;;18.23;7.43;;;;;;;5.29;70.94;102870.94;5000920;28;20475;-24
2021/04/23 06:46:15;;;;;;;15.10;6.25;;;;;;;5.48;69.78;102864.47;4999485;28;20150;-25
2021/04/23 06:48:40;;;;;;;18.40;7.20;;;;;;;5.41;69.83;102875.69;5010297;28;20031;-24
2021/04/23 06:51:05;;;;;;;21.83;7.78;;;;;;;5.54;69.98;102874.31;4999772;28;20083;-27
2021/04/23 06:53:31;;;;;;;13.98;6.28;;;;;;;5.69;69.34;102873.91;4989297;28;20148;-25
2021/04/23 06:55:57;;;;;;;17.42;6.88;;;;;;;5.76;68.90;102878.50;4991118;28;20030;-27
2021/04/23 06:58:22;;;;;;;21.60;6.95;;;;;;;5.83;68.01;102875.19;4998459;28;20056;-28
2021/04/23 07:00:48;;;;;;;12.15;6.22;;;;;;;5.87;67.76;102883.19;4988135;28;20061;-26
2021/04/23 07:03:13;;;;;;;11.27;3.65;;;;;;;6.00;67.42;102882.69;4989803;28;20677;-27
2021/04/23 07:05:42;;;;;;;17.00;5.13;;;;;;;6.00;67.29;102888.00;4989745;28;20169;-25
2021/04/23 07:08:08;;;;;;;17.60;4.18;;;;;;;6.39;67.20;102880.25;4992937;28;20033;-28
2021/04/23 07:10:33;;;;;;;15.80;3.55;;;;;;;6.60;66.58;102890.47;4996197;28;20567;-25
2021/04/23 07:12:58;;;;;;;14.77;6.00;;;;;;;6.53;65.13;102889.44;5006069;28;20045;-24
2021/04/23 07:15:25;;;;;;;11.75;2.95;;;;;;;6.41;64.82;102886.47;4998054;28;20033;-26
2021/04/23 07:17:51;;;;;;;12.10;3.97;;;;;;;6.40;63.86;102892.59;5008535;28;20106;-26
2021/04/23 07:20:17;;;;;;;12.25;5.65;;;;;;;6.32;64.46;102890.66;5002397;28;20412;-24
2021/04/23 07:22:42;;;;;;;12.60;4.03;;;;;;;6.78;66.07;102895.34;5006426;28;20049;-24
2021/04/23 07:25:08;;;;;;;10.32;3.25;;;;;;;6.88;63.26;102892.94;5000210;28;20041;-28
2021/04/23 07:27:37;;;;;;;14.73;4.90;;;;;;;6.55;62.73;102890.38;5002379;28;20306;-24
2021/04/23 07:30:06;;;;;;;11.25;4.28;;;;;;;6.56;63.35;102892.16;5006513;28;20037;-25
2021/04/23 07:32:31;;;;;;;11.38;3.20;;;;;;;6.79;62.86;102893.59;4998684;28;20596;-24
2021/04/23 07:34:57;;;;;;;13.73;4.50;;;;;;;7.08;62.27;102892.50;5009043;28;20053;-27
2021/04/23 07:37:22;;;;;;;11.75;3.55;;;;;;;7.01;61.79;102894.13;5000763;28;20074;-24
2021/04/23 07:39:47;;;;;;;11.38;2.78;;;;;;;7.03;61.84;102888.03;5002369;28;20123;-24
2021/04/23 07:42:13;;;;;;;9.85;3.35;;;;;;;6.91;61.35;102895.66;5003363;28;20371;-24
2021/04/23 07:44:38;;;;;;;11.88;3.60;;;;;;;6.79;61.43;102891.84;5013376;28;20025;-24
2021/04/23 07:47:03;;;;;;;10.88;3.40;;;;;;;6.87;61.59;102897.34;5005992;28;20078;-24
2021/04/23 07:49:30;;;;;;;10.25;3.88;;;;;;;6.89;61.60;102886.81;5005491;28;20025;-26
2021/04/23 07:51:55;;;;;;;9.80;3.65;;;;;;;6.94;61.64;102887.81;4999015;28;20025;-24
2021/04/23 07:54:20;;;;;;;12.65;4.03;;;;;;;6.97;61.57;102882.56;5003091;28;20037;-24
2021/04/23 07:56:46;;;;;;;9.02;3.35;;;;;;;6.95;61.04;102888.69;5004225;28;20167;-24
2021/04/23 07:59:11;;;;;;;12.55;3.70;;;;;;;6.99;61.07;102882.59;5007566;28;20022;-25
2021/04/23 08:01:36;;;;;;;15.20;3.85;;;;;;;7.08;60.84;102882.81;4999655;28;20408;-24
2021/04/23 08:04:02;;;;;;;16.55;3.92;;;;;;;7.09;61.08;102889.03;5001543;28;20180;-24
2021/04/23 08:06:28;;;;;;;9.75;3.00;;;;;;;7.41;61.13;102888.84;4998532;28;20026;-24
2021/04/23 08:08:53;;;;;;;8.63;2.50;;;;;;;7.78;60.86;102879.94;4993177;28;20030;-27
2021/04/23 08:11:19;;;;;;;9.75;3.33;;;;;;;7.99;59.88;102867.13;4996394;28;20045;-25
2021/04/23 08:13:44;;;;;;;11.40;3.63;;;;;;;7.69;59.41;102885.91;5010584;28;20126;-25
2021/04/23 08:16:09;;;;;;;8.95;3.92;;;;;;;8.28;59.43;102870.28;5005698;28;20045;-27
2021/04/23 08:18:36;;;;;;;8.18;2.95;;;;;;;9.43;58.62;102881.88;5003113;28;20461;-24
2021/04/23 08:21:02;;;;;;;13.35;3.63;;;;;;;9.04;57.83;102883.97;5003362;28;20414;-24
2021/04/23 08:23:27;;;;;;;9.85;3.63;;;;;;;9.57;56.68;102876.75;5002150;28;20661;-24
2021/04/23 11:48:46;;;;;;;19.58;3.20;;;;;;;18.83;30.02;102788.28;5077788;27;20457;-66
2021/04/23 11:51:12;;;;;;;8.75;2.50;;;;;;;19.23;28.83;102790.75;5083957;28;20517;-61
2021/04/23 11:53:37;;;;;;;8.32;2.72;;;;;;;19.47;28.50;102794.53;5082507;28;20024;-62
2021/04/23 11:56:03;;;;;;;13.70;3.55;;;;;;;19.19;28.78;102781.88;5044960;28;20518;-61
2021/04/23 11:58:28;;;;;;;9.00;3.10;;;;;;;19.26;28.54;102796.94;5062861;28;20056;-61
2021/04/23 12:00:55;;;;;;;7.68;3.10;;;;;;;19.37;29.14;102787.66;5063416;28;20083;-61
2021/04/23 12:03:21;;;;;;;10.68;3.08;;;;;;;19.25;29.23;102794.31;5062993;28;20502;-61
2021/04/23 12:05:47;;;;;;;10.57;3.53;;;;;;;19.20;29.04;102783.66;5063138;28;20131;-62
2021/04/23 12:08:14;;;;;;;9.73;3.50;;;;;;;19.37;28.35;102779.56;5063105;28;20333;-63
2021/04/23 12:10:44;;;;;;;9.48;3.65;;;;;;;19.30;28.81;102762.66;5063295;28;20033;-63
2021/04/23 12:13:15;;;;;;;10.30;4.13;;;;;;;19.30;28.65;102768.97;5062435;28;20033;-61
2021/04/23 12:15:41;;;;;;;10.88;3.80;;;;;;;19.38;29.11;102770.53;5045281;28;20448;-61
2021/04/23 12:18:07;;;;;;;7.47;2.90;;;;;;;19.31;29.65;102768.00;5044284;28;20472;-61
2021/04/23 12:20:36;;;;;;;12.30;3.85;;;;;;;19.44;29.08;102763.13;5063577;28;20044;-62
2021/04/23 12:23:02;;;;;;;8.77;3.20;;;;;;;19.34;28.95;102777.84;5063419;28;20025;-61
2021/04/23 12:25:31;;;;;;;10.10;3.20;;;;;;;19.41;28.75;102765.94;5063235;28;20051;-62
2021/04/23 12:28:23;;;;;;;10.82;4.30;;;;;;;19.09;28.97;102765.06;5062682;28;20033;-61
2021/04/23 12:31:02;;;;;;;12.43;4.00;;;;;;;19.04;28.95;102767.00;5045132;28;20036;-61
2021/04/23 12:33:42;;;;;;;12.70;4.03;;;;;;;18.78;28.83;102756.03;5044840;28;20020;-61
2021/04/23 12:36:19;;;;;;;8.65;3.50;;;;;;;19.18;29.52;102753.16;5045049;28;20055;-62
2021/04/23 12:38:49;;;;;;;9.52;3.15;;;;;;;19.48;29.08;102758.50;5062918;28;20088;-61
2021/04/23 12:41:18;;;;;;;8.95;3.22;;;;;;;19.41;28.47;102756.94;5044950;28;20092;-61
2021/04/23 12:43:44;;;;;;;8.48;3.08;;;;;;;19.42;28.63;102751.50;5044290;28;20077;-61
2021/04/23 12:46:22;;;;;;;8.88;3.00;;;;;;;19.33;29.00;102758.06;5044354;28;20388;-62
2021/04/23 12:49:17;;;;;;;11.48;3.53;;;;;;;19.33;28.77;102746.41;5062673;28;20073;-62
2021/04/23 12:51:48;;;;;;;10.02;3.33;;;;;;;19.46;28.75;102743.31;5062339;28;20419;-61
2021/04/23 12:54:14;;;;;;;11.20;4.03;;;;;;;19.47;28.85;102743.25;5028507;28;20056;-62
2021/04/23 12:56:41;;;;;;;9.75;3.67;;;;;;;19.43;29.21;102742.47;5060710;28;20025;-61
2021/04/23 12:59:07;;;;;;;10.07;4.15;;;;;;;19.35;28.90;102743.66;5035675;28;20040;-61
2021/04/23 13:01:32;;;;;;;12.10;3.35;;;;;;;19.61;28.61;102732.00;5029249;28;20028;-62
2021/04/23 13:04:03;;;;;;;10.43;3.58;;;;;;;19.47;29.15;102748.66;5030597;28;20356;-61
2021/04/23 13:06:28;;;;;;;7.65;2.97;;;;;;;19.66;28.83;102742.69;5048573;28;20078;-61
2021/04/23 13:09:03;;;;;;;8.63;2.80;;;;;;;19.53;29.55;102739.50;5048755;28;20472;-61
2021/04/23 13:11:29;;;;;;;7.78;3.10;;;;;;;19.58;29.41;102733.94;5048015;28;20372;-62
2021/04/23 13:13:54;;;;;;;12.02;3.72;;;;;;;19.80;28.58;102728.72;5048691;28;20052;-63
2021/04/23 13:16:30;;;;;;;8.10;3.00;;;;;;;18.81;32.23;102731.69;5096192;27;20441;-57
2021/04/23 13:18:57;;;;;;;10.02;2.90;;;;;;;18.33;31.87;102722.25;5078767;28;20158;-55
2021/04/23 13:21:22;;;;;;;8.65;2.70;;;;;;;18.53;31.17;102726.19;5076044;28;20024;-56
2021/04/23 13:23:49;;;;;;;7.65;2.83;;;;;;;18.66;32.17;102718.66;5064853;28;20073;-56
2021/04/23 13:26:17;;;;;;;8.48;3.03;;;;;;;18.78;31.49;102717.44;5082467;28;20028;-56
2021/04/23 13:28:51;;;;;;;12.07;3.40;;;;;;;18.57;31.22;102714.41;5076033;28;20146;-56
2021/04/23 13:31:17;;;;;;;8.55;2.75;;;;;;;18.72;31.57;102710.41;5063695;28;20024;-56
2021/04/23 13:33:42;;;;;;;8.20;3.47;;;;;;;18.21;32.13;102727.03;5080610;28;20052;-55
2021/04/23 13:36:08;;;;;;;10.85;3.55;;;;;;;17.53;32.85;102714.28;5077630;28;20175;-55
2021/04/23 13:38:42;;;;;;;9.30;3.95;;;;;;;17.59;33.35;102713.28;5079053;28;20375;-57
2021/04/23 13:41:15;;;;;;;9.13;2.95;;;;;;;17.69;32.76;102713.03;5080179;28;20051;-58
2021/04/23 13:43:53;;;;;;;10.25;3.05;;;;;;;17.77;32.49;102711.94;5078505;28;20040;-58
2021/04/23 13:46:20;;;;;;;9.98;3.30;;;;;;;18.13;32.14;102700.25;5080938;28;20347;-58
2021/04/23 13:48:51;;;;;;;8.38;3.08;;;;;;;18.33;31.72;102696.19;5075817;28;20649;-58
2021/04/23 13:51:22;;;;;;;11.80;3.50;;;;;;;18.27;32.22;102695.44;5081255;28;20448;-55
2021/04/23 13:53:48;;;;;;;13.43;4.43;;;;;;;18.28;32.13;102708.88;5077077;28;20107;-56
2021/04/23 13:56:19;;;;;;;10.00;3.63;;;;;;;17.61;32.88;102699.78;5073377;28;20028;-56
2021/04/23 13:58:58;;;;;;;8.80;3.85;;;;;;;18.03;32.63;102693.34;5074500;28;20514;-56
2021/04/23 14:01:50;;;;;;;7.55;2.83;;;;;;;18.33;32.01;102689.91;5077672;28;20020;-57
2021/04/23 14:04:17;;;;;;;9.55;3.03;;;;;;;18.33;33.55;102687.22;5079680;28;20142;-56
2021/04/23 14:06:44;;;;;;;9.10;3.03;;;;;;;17.89;32.26;102686.50;5073003;28;20060;-56
2021/04/23 14:09:11;;;;;;;11.00;3.80;;;;;;;17.57;32.53;102687.31;5072596;28;20051;-56
2021/04/23 14:11:37;;;;;;;10.60;2.78;;;;;;;18.15;31.99;102686.81;5081520;28;20040;-56
2021/04/23 14:14:07;;;;;;;9.43;3.35;;;;;;;18.41;31.95;102685.19;5080752;28;20605;-57
2021/04/23 14:16:33;;;;;;;8.00;3.33;;;;;;;17.78;32.33;102692.16;5076872;28;20060;-55
2021/04/23 14:18:58;;;;;;;10.00;3.65;;;;;;;17.51;32.81;102686.53;5082419;28;20347;-57
2021/04/23 14:21:25;;;;;;;10.02;3.13;;;;;;;17.98;32.45;102679.13;5079650;28;20028;-58
2021/04/23 14:23:51;;;;;;;9.55;3.40;;;;;;;18.17;31.84;102675.97;5077444;28;20020;-56
2021/04/23 14:26:17;;;;;;;6.22;2.47;;;;;;;18.52;32.64;102668.72;5072628;28;20469;-57
2021/04/23 14:28:44;;;;;;;10.48;3.53;;;;;;;18.19;31.77;102671.44;5066202;28;20043;-57
2021/04/23 14:31:09;;;;;;;10.55;3.40;;;;;;;18.52;31.25;102666.00;5060684;28;20340;-57
2021/04/23 14:33:35;;;;;;;8.25;2.72;;;;;;;18.47;31.61;102663.47;5061935;28;20054;-56
2021/04/23 14:36:00;;;;;;;9.18;3.42;;;;;;;18.35;31.56;102656.59;5062873;28;20489;-56
2021/04/23 14:38:26;;;;;;;9.23;3.30;;;;;;;18.35;31.80;102658.44;5063730;28;20058;-57
2021/04/23 14:40:54;;;;;;;6.32;2.60;;;;;;;18.64;31.21;102651.31;5061842;28;20072;-56
2021/04/23 14:43:20;;;;;;;8.88;3.30;;;;;;;18.48;31.44;102651.75;5063915;28;20203;-55
2021/04/23 14:45:45;;;;;;;10.75;3.10;;;;;;;18.48;30.73;102656.28;5061863;28;20044;-58